Nearby METAR Reports

 

KALB - Albany, New York, USA
Distance from station: E 47mi, 75km
Updated: Wed, 25-Nov-2020 4:51am EST
Overcast
Overcast
 Wind from calm
Wind: Calm
Temperature: 27°F , -3°C
Dew Point: 21°F , -6°C
Humidity: 80%
Barometer: 30.36 inHg , 1028.1 hPa
Clouds: Overcast
Visibility: 10 miles , 16 km
Cloud details: Few Clouds 6500 ft
Overcast 9500 ft
2020/11/25 09:51 KALB 250951Z 00000KT 10SM FEW065 OVC095 M03/M06 A3036 RMK AO2 SNE12 SLP283 P0000 T10331061
KSLK - Saranac Lake, New York, USA
Distance from station: N 110mi, 177km
Updated: Wed, 25-Nov-2020 4:51am EST
Light snow, Mist, Overcast
Light snow, Mist, Overcast
 Wind from ENE
Wind: ENE 3 mph , 6 km/h
Temperature: 19°F , -7°C
Dew Point: 18°F , -8°C
Humidity: 93%
Barometer: 30.20 inHg , 1022.7 hPa
Summary: Light snow, Mist
Clouds: Overcast
Visibility: 3/4 mile , 1.2 km
Cloud details: Overcast 1000 ft
2020/11/25 09:51 KSLK 250951Z AUTO 07003KT 3/4SM -SN BR VV010 M07/M08 A3020 RMK AO2 SLP255 P0006 T10671078
 
KSYR - Syracuse, New York, USA
Distance from station: W 73mi, 117km
Updated: Wed, 25-Nov-2020 4:54am EST
Mostly cloudy
Mostly cloudy
 Wind from NE
Wind: NE 9 mph , 15 km/h
Temperature: 36°F , 2°C
Wind Chill: 29°F , -2°C
Dew Point: 27°F , -3°C
Humidity: 70%
Barometer: 30.19 inHg , 1022.4 hPa
Clouds: Mostly cloudy
Visibility: 10 miles , 16 km
Cloud details: Partly cloudy 8500 ft
Mostly cloudy 10000 ft
2020/11/25 09:54 KSYR 250954Z 05008KT 10SM SCT085 BKN100 02/M03 A3019 RMK AO2 SLP224 BKN V OVC T00171028
KBGM - Binghamton, New York, USA
Distance from station: SW 78mi, 126km
Updated: Wed, 25-Nov-2020 4:53am EST
Few Clouds
Few Clouds
 Wind from S
Wind: S 10 mph , 17 km/h, Gust: 20 mph , 31 km/h
Temperature: 36°F , 2°C
Wind Chill: 29°F , -2°C
Dew Point: 25°F , -4°C
Humidity: 65%
Barometer: 30.19 inHg , 1022.4 hPa
Clouds: Few Clouds
Visibility: 10 miles , 16 km
Cloud details: Few Clouds 9000 ft
2020/11/25 09:53 KBGM 250953Z AUTO 17009G17KT 10SM FEW090 02/M04 A3019 RMK AO2 SLP239 T00171039
 
KRME - Rome, New York, USA
Distance from station: WNW 43mi, 69km
Updated: Wed, 25-Nov-2020 4:53am EST
Overcast
Overcast
 Wind from E
Wind: E 8 mph , 13 km/h
Temperature: 32°F , 0°C
Wind Chill: 25°F , -4°C
Dew Point: 23°F , -5°C
Humidity: 69%
Barometer: 30.25 inHg , 1024.4 hPa
Clouds: Overcast
Visibility: 10 miles , 16 km
Cloud details: Partly cloudy 7000 ft
Overcast 8500 ft
2020/11/25 09:53 KRME 250953Z AUTO 10007KT 10SM SCT070 OVC085 00/M05 A3025 RMK AO2 SLP247 T00001050
KJFK - New York, New York, USA
Distance from station: SSE 159mi, 256km
Updated: Wed, 25-Nov-2020 4:51am EST
Overcast
Overcast
 Wind from S
Wind: S 14 mph , 22 km/h
Temperature: 48°F , 9°C
Wind Chill: 42°F , 6°C
Dew Point: 37°F , 3°C
Humidity: 66%
Barometer: 30.37 inHg , 1028.4 hPa
Clouds: Overcast
Visibility: 10 miles , 16 km
Cloud details: Mostly cloudy 3700 ft
Overcast 9000 ft
2020/11/25 09:51 KJFK 250951Z 18012KT 10SM BKN037 OVC090 09/03 A3037 RMK AO2 SLP284 T00940033 $
 
KROC - Rochester, New York, USA
Distance from station: W 150mi, 242km
Updated: Wed, 25-Nov-2020 4:54am EST
Overcast
Overcast
 Wind from SSE
Wind: SSE 5 mph , 7 km/h
Temperature: 37°F , 3°C
Wind Chill: 33°F , 1°C
Dew Point: 32°F , 0°C
Humidity: 81%
Barometer: 30.10 inHg , 1019.3 hPa
Clouds: Overcast
Visibility: 10 miles , 16 km
Cloud details: Overcast 8500 ft
2020/11/25 09:54 KROC 250954Z 15004KT 10SM OVC085 03/00 A3010 RMK AO2 SLP201 T00330000
KART - Watertown, New York, USA
Distance from station: NNW 103mi, 166km
Updated: Wed, 25-Nov-2020 4:56am EST
Overcast
Overcast
 Wind from calm
Wind: Calm
Temperature: 36°F , 2°C
Dew Point: 28°F , -2°C
Humidity: 75%
Barometer: 30.17 inHg , 1021.7 hPa
Clouds: Overcast
Visibility: 10 miles , 16 km
Cloud details: Overcast 6000 ft
2020/11/25 09:56 KART 250956Z AUTO 00000KT 10SM OVC060 02/M02 A3017 RMK AO2 SLP221 T00171017 $
 
KELM - Elmira-Corning, New York, USA
Distance from station: SSW 121mi, 195km
Updated: Wed, 25-Nov-2020 4:53am EST
Clear
Clear
 Wind from varies
Wind: varies 7 mph , 11 km/h
Temperature: 43°F , 6°C
Wind Chill: 39°F , 4°C
Dew Point: 27°F , -3°C
Humidity: 53%
Barometer: 30.17 inHg , 1021.7 hPa
Clouds: Clear
Visibility: 10 miles , 16 km
2020/11/25 09:53 KELM 250953Z AUTO VRB06KT 10SM CLR 06/M03 A3017 RMK AO2 SLP226 T00561033
KJHW - Jamestown, New York, USA
Distance from station: SW 238mi, 383km
Updated: Wed, 25-Nov-2020 4:56am EST
Clear
Clear
 Wind from S
Wind: S 8 mph , 13 km/h
Temperature: 37°F , 3°C
Wind Chill: 31°F , -1°C
Dew Point: 27°F , -3°C
Humidity: 65%
Barometer: 30.06 inHg , 1017.9 hPa
Clouds: Clear
Visibility: 10 miles , 16 km
2020/11/25 09:56 KJHW 250956Z AUTO 19007KT 10SM CLR 03/M03 A3006 RMK AO2 SLP199 T00281028
 
KMSS - Massena, New York, USA
Distance from station: N 141mi, 232km
Updated: Wed, 25-Nov-2020 5:23am EST
Light snow, Mist, Overcast
Light snow, Mist, Overcast
 Wind from ENE
Wind: ENE 10 mph , 17 km/h
Temperature: 25°F , -4°C
Wind Chill: 15°F , -9°C
Dew Point: 21°F , -6°C
Humidity: 86%
Barometer: 30.25 inHg , 1024.4 hPa
Summary: Light snow, Mist
Clouds: Overcast
Visibility: 1 1/4 miles , 2 km
Cloud details: Overcast 2000 ft
2020/11/25 10:23 KMSS 251023Z AUTO 07009KT 1 1/4SM -SN BR OVC020 M04/M06 A3025 RMK AO2 P0001 T10441061
KBUF - Buffalo, New York, USA
Distance from station: W 204mi, 328km
Updated: Wed, 25-Nov-2020 4:54am EST
Mostly cloudy
Mostly cloudy
 Wind from ESE
Wind: ESE 7 mph , 11 km/h
Temperature: 37°F , 3°C
Wind Chill: 32°F , 0°C
Dew Point: 34°F , 1°C
Humidity: 87%
Barometer: 30.06 inHg , 1017.9 hPa
Clouds: Mostly cloudy
Visibility: 10 miles , 16 km
Cloud details: Few Clouds 5000 ft
Mostly cloudy 10000 ft
2020/11/25 09:54 KBUF 250954Z 11006KT 10SM FEW050 BKN100 03/01 A3006 RMK AO2 SLP188 T00330006